sensor_id;sensor_type;location;lat;lon;timestamp;temperature;humidity
530;DHT22;251;48.704;9.210;2022-11-20T00:01:12;6.20;81.00
530;DHT22;251;48.704;9.210;2022-11-20T00:03:40;6.40;82.20
530;DHT22;251;48.704;9.210;2022-11-20T00:06:10;6.40;81.80
530;DHT22;251;48.704;9.210;2022-11-20T00:08:37;5.90;81.40
530;DHT22;251;48.704;9.210;2022-11-20T00:11:04;6.10;81.90
530;DHT22;251;48.704;9.210;2022-11-20T00:13:32;5.90;80.70
530;DHT22;251;48.704;9.210;2022-11-20T00:15:59;6.10;81.10
530;DHT22;251;48.704;9.210;2022-11-20T00:18:27;5.90;80.90
530;DHT22;251;48.704;9.210;2022-11-20T00:21:00;6.20;81.70
530;DHT22;251;48.704;9.210;2022-11-20T00:23:28;6.10;80.80
530;DHT22;251;48.704;9.210;2022-11-20T00:25:55;5.80;82.00
530;DHT22;251;48.704;9.210;2022-11-20T00:28:22;6.10;82.10
530;DHT22;251;48.704;9.210;2022-11-20T00:30:49;6.20;82.30
530;DHT22;251;48.704;9.210;2022-11-20T00:33:15;6.20;82.10
530;DHT22;251;48.704;9.210;2022-11-20T00:35:42;5.90;82.80
530;DHT22;251;48.704;9.210;2022-11-20T00:38:09;6.20;82.10
530;DHT22;251;48.704;9.210;2022-11-20T00:40:37;5.90;82.10
530;DHT22;251;48.704;9.210;2022-11-20T00:43:04;5.90;83.30
530;DHT22;251;48.704;9.210;2022-11-20T00:45:31;5.90;83.20
530;DHT22;251;48.704;9.210;2022-11-20T00:47:57;5.90;84.70
530;DHT22;251;48.704;9.210;2022-11-20T00:50:24;6.00;85.60
530;DHT22;251;48.704;9.210;2022-11-20T00:52:51;6.20;84.90
530;DHT22;251;48.704;9.210;2022-11-20T00:55:18;5.80;84.10
530;DHT22;251;48.704;9.210;2022-11-20T00:57:46;5.60;81.20
530;DHT22;251;48.704;9.210;2022-11-20T01:00:13;5.60;82.40
530;DHT22;251;48.704;9.210;2022-11-20T01:02:40;5.60;83.10
530;DHT22;251;48.704;9.210;2022-11-20T01:05:07;6.20;84.10
530;DHT22;251;48.704;9.210;2022-11-20T01:07:34;5.70;81.80
530;DHT22;251;48.704;9.210;2022-11-20T01:10:00;5.70;83.10
530;DHT22;251;48.704;9.210;2022-11-20T01:12:27;5.60;82.90
530;DHT22;251;48.704;9.210;2022-11-20T01:14:55;5.60;81.40
530;DHT22;251;48.704;9.210;2022-11-20T01:17:22;5.60;80.00
530;DHT22;251;48.704;9.210;2022-11-20T01:19:49;5.60;81.30
530;DHT22;251;48.704;9.210;2022-11-20T01:22:16;6.10;82.10
530;DHT22;251;48.704;9.210;2022-11-20T01:24:43;5.70;81.20
530;DHT22;251;48.704;9.210;2022-11-20T01:27:10;6.10;83.70
530;DHT22;251;48.704;9.210;2022-11-20T01:29:36;5.60;81.10
530;DHT22;251;48.704;9.210;2022-11-20T01:32:05;5.60;81.50
530;DHT22;251;48.704;9.210;2022-11-20T01:34:32;5.60;80.50
530;DHT22;251;48.704;9.210;2022-11-20T01:36:59;5.70;78.00
530;DHT22;251;48.704;9.210;2022-11-20T01:39:26;5.70;80.50
530;DHT22;251;48.704;9.210;2022-11-20T01:41:54;5.60;80.80
530;DHT22;251;48.704;9.210;2022-11-20T01:44:53;5.90;80.70
530;DHT22;251;48.704;9.210;2022-11-20T01:47:27;5.50;79.40
530;DHT22;251;48.704;9.210;2022-11-20T01:49:59;5.50;79.90
530;DHT22;251;48.704;9.210;2022-11-20T01:52:30;5.60;80.00
530;DHT22;251;48.704;9.210;2022-11-20T01:55:03;5.90;78.50
530;DHT22;251;48.704;9.210;2022-11-20T01:57:31;5.40;78.10
530;DHT22;251;48.704;9.210;2022-11-20T02:00:03;5.40;77.40
530;DHT22;251;48.704;9.210;2022-11-20T02:02:40;5.30;78.40
530;DHT22;251;48.704;9.210;2022-11-20T02:05:14;5.60;78.40
530;DHT22;251;48.704;9.210;2022-11-20T02:07:44;5.30;77.30
530;DHT22;251;48.704;9.210;2022-11-20T02:10:11;5.30;75.70
530;DHT22;251;48.704;9.210;2022-11-20T02:12:38;5.30;76.10
530;DHT22;251;48.704;9.210;2022-11-20T02:15:22;5.40;76.70
530;DHT22;251;48.704;9.210;2022-11-20T02:17:51;5.30;76.40
530;DHT22;251;48.704;9.210;2022-11-20T02:20:18;5.00;76.30
530;DHT22;251;48.704;9.210;2022-11-20T02:22:48;5.00;76.50
530;DHT22;251;48.704;9.210;2022-11-20T02:25:18;5.00;77.50
530;DHT22;251;48.704;9.210;2022-11-20T02:27:46;4.90;77.90
530;DHT22;251;48.704;9.210;2022-11-20T02:30:13;5.00;77.90
530;DHT22;251;48.704;9.210;2022-11-20T02:32:40;5.00;79.20
530;DHT22;251;48.704;9.210;2022-11-20T02:35:08;5.00;78.90
530;DHT22;251;48.704;9.210;2022-11-20T02:37:37;5.00;79.90
530;DHT22;251;48.704;9.210;2022-11-20T02:40:06;5.20;80.20
530;DHT22;251;48.704;9.210;2022-11-20T02:42:35;4.90;80.30
530;DHT22;251;48.704;9.210;2022-11-20T02:45:02;5.20;80.70
530;DHT22;251;48.704;9.210;2022-11-20T02:47:29;5.10;80.80
530;DHT22;251;48.704;9.210;2022-11-20T02:49:56;4.90;82.20
530;DHT22;251;48.704;9.210;2022-11-20T02:52:23;5.00;82.10
530;DHT22;251;48.704;9.210;2022-11-20T02:54:53;4.90;81.20
530;DHT22;251;48.704;9.210;2022-11-20T02:57:19;4.90;82.70
530;DHT22;251;48.704;9.210;2022-11-20T02:59:48;5.00;82.10
530;DHT22;251;48.704;9.210;2022-11-20T03:02:14;4.90;82.40
530;DHT22;251;48.704;9.210;2022-11-20T03:04:41;5.00;83.80
530;DHT22;251;48.704;9.210;2022-11-20T03:07:09;5.10;83.60
530;DHT22;251;48.704;9.210;2022-11-20T03:09:36;4.90;83.10
530;DHT22;251;48.704;9.210;2022-11-20T03:12:03;5.00;84.10
530;DHT22;251;48.704;9.210;2022-11-20T03:14:30;5.00;85.80
530;DHT22;251;48.704;9.210;2022-11-20T03:16:58;5.00;86.00
530;DHT22;251;48.704;9.210;2022-11-20T03:19:25;5.20;85.00
530;DHT22;251;48.704;9.210;2022-11-20T03:21:52;5.00;84.60
530;DHT22;251;48.704;9.210;2022-11-20T03:24:19;5.10;83.50
530;DHT22;251;48.704;9.210;2022-11-20T03:26:45;5.20;84.10
530;DHT22;251;48.704;9.210;2022-11-20T03:29:12;5.00;83.90
530;DHT22;251;48.704;9.210;2022-11-20T03:31:40;5.00;84.30
530;DHT22;251;48.704;9.210;2022-11-20T03:34:09;5.00;83.90
530;DHT22;251;48.704;9.210;2022-11-20T03:36:37;5.00;82.30
530;DHT22;251;48.704;9.210;2022-11-20T03:39:04;5.40;82.60
530;DHT22;251;48.704;9.210;2022-11-20T03:41:36;5.00;82.80
530;DHT22;251;48.704;9.210;2022-11-20T03:44:05;5.10;81.90
530;DHT22;251;48.704;9.210;2022-11-20T03:46:33;5.20;82.40
530;DHT22;251;48.704;9.210;2022-11-20T03:49:00;5.00;81.10
530;DHT22;251;48.704;9.210;2022-11-20T03:51:30;5.10;80.70
530;DHT22;251;48.704;9.210;2022-11-20T03:53:59;5.30;80.60
530;DHT22;251;48.704;9.210;2022-11-20T03:56:27;5.00;82.30
530;DHT22;251;48.704;9.210;2022-11-20T03:58:54;5.10;81.10
530;DHT22;251;48.704;9.210;2022-11-20T04:01:23;5.00;80.30
530;DHT22;251;48.704;9.210;2022-11-20T04:03:52;5.10;80.70
530;DHT22;251;48.704;9.210;2022-11-20T04:06:21;5.00;80.90
530;DHT22;251;48.704;9.210;2022-11-20T04:08:50;5.20;81.00
530;DHT22;251;48.704;9.210;2022-11-20T04:11:18;5.00;80.80
530;DHT22;251;48.704;9.210;2022-11-20T04:13:47;4.90;79.60
530;DHT22;251;48.704;9.210;2022-11-20T04:16:15;5.10;79.50
530;DHT22;251;48.704;9.210;2022-11-20T04:18:42;5.10;81.70
530;DHT22;251;48.704;9.210;2022-11-20T04:21:10;4.90;81.40
530;DHT22;251;48.704;9.210;2022-11-20T04:23:37;5.00;80.90
530;DHT22;251;48.704;9.210;2022-11-20T04:26:06;5.10;81.10
530;DHT22;251;48.704;9.210;2022-11-20T04:28:34;5.00;80.50
530;DHT22;251;48.704;9.210;2022-11-20T04:31:05;5.00;79.80
530;DHT22;251;48.704;9.210;2022-11-20T04:33:33;5.00;81.50
530;DHT22;251;48.704;9.210;2022-11-20T04:36:01;4.90;81.10
530;DHT22;251;48.704;9.210;2022-11-20T04:38:28;4.70;79.40
530;DHT22;251;48.704;9.210;2022-11-20T04:40:59;5.00;80.70
530;DHT22;251;48.704;9.210;2022-11-20T04:43:27;4.70;80.90
530;DHT22;251;48.704;9.210;2022-11-20T04:45:55;4.70;81.00
530;DHT22;251;48.704;9.210;2022-11-20T04:48:23;4.70;80.30
530;DHT22;251;48.704;9.210;2022-11-20T04:50:51;5.00;81.50
530;DHT22;251;48.704;9.210;2022-11-20T04:53:18;4.70;81.70
530;DHT22;251;48.704;9.210;2022-11-20T04:55:45;4.70;82.70
530;DHT22;251;48.704;9.210;2022-11-20T04:58:12;5.00;82.30
530;DHT22;251;48.704;9.210;2022-11-20T05:00:41;5.10;82.40
530;DHT22;251;48.704;9.210;2022-11-20T05:03:07;5.00;82.60
530;DHT22;251;48.704;9.210;2022-11-20T05:05:35;4.90;81.60
530;DHT22;251;48.704;9.210;2022-11-20T05:08:02;5.00;82.70
530;DHT22;251;48.704;9.210;2022-11-20T05:10:29;5.20;82.30
530;DHT22;251;48.704;9.210;2022-11-20T05:12:57;4.90;81.40
530;DHT22;251;48.704;9.210;2022-11-20T05:15:24;5.00;82.50
530;DHT22;251;48.704;9.210;2022-11-20T05:17:52;5.20;82.00
530;DHT22;251;48.704;9.210;2022-11-20T05:20:19;5.00;81.90
530;DHT22;251;48.704;9.210;2022-11-20T05:22:46;4.90;81.00
530;DHT22;251;48.704;9.210;2022-11-20T05:25:13;5.20;81.80
530;DHT22;251;48.704;9.210;2022-11-20T05:27:40;5.00;80.70
530;DHT22;251;48.704;9.210;2022-11-20T05:30:08;5.20;79.40
530;DHT22;251;48.704;9.210;2022-11-20T05:32:35;5.30;81.10
530;DHT22;251;48.704;9.210;2022-11-20T05:35:03;5.20;80.50
530;DHT22;251;48.704;9.210;2022-11-20T05:37:30;5.00;79.40
530;DHT22;251;48.704;9.210;2022-11-20T05:39:57;5.40;80.50
530;DHT22;251;48.704;9.210;2022-11-20T05:42:24;5.20;81.00
530;DHT22;251;48.704;9.210;2022-11-20T05:44:57;5.50;80.40
530;DHT22;251;48.704;9.210;2022-11-20T05:47:24;5.30;79.80
530;DHT22;251;48.704;9.210;2022-11-20T05:49:51;5.30;79.20
530;DHT22;251;48.704;9.210;2022-11-20T05:52:20;5.30;78.80
530;DHT22;251;48.704;9.210;2022-11-20T05:54:47;5.30;77.70
530;DHT22;251;48.704;9.210;2022-11-20T05:57:13;5.30;79.20
530;DHT22;251;48.704;9.210;2022-11-20T05:59:41;5.30;79.00
530;DHT22;251;48.704;9.210;2022-11-20T06:02:08;5.30;77.80
530;DHT22;251;48.704;9.210;2022-11-20T06:04:35;5.30;76.90
530;DHT22;251;48.704;9.210;2022-11-20T06:07:01;5.30;77.60
530;DHT22;251;48.704;9.210;2022-11-20T06:09:30;5.20;77.00
530;DHT22;251;48.704;9.210;2022-11-20T06:11:56;5.30;77.60
530;DHT22;251;48.704;9.210;2022-11-20T06:14:23;5.50;77.20
530;DHT22;251;48.704;9.210;2022-11-20T06:16:50;5.30;76.20
530;DHT22;251;48.704;9.210;2022-11-20T06:19:17;5.30;75.00
530;DHT22;251;48.704;9.210;2022-11-20T06:21:44;5.20;75.90
530;DHT22;251;48.704;9.210;2022-11-20T06:24:11;5.20;75.40
530;DHT22;251;48.704;9.210;2022-11-20T06:26:39;5.30;75.80
530;DHT22;251;48.704;9.210;2022-11-20T06:29:06;5.20;76.20
530;DHT22;251;48.704;9.210;2022-11-20T06:31:33;5.40;75.40
530;DHT22;251;48.704;9.210;2022-11-20T06:34:03;5.40;76.00
530;DHT22;251;48.704;9.210;2022-11-20T06:36:30;5.50;76.00
530;DHT22;251;48.704;9.210;2022-11-20T06:38:57;5.30;75.60
530;DHT22;251;48.704;9.210;2022-11-20T06:41:23;5.30;75.50
530;DHT22;251;48.704;9.210;2022-11-20T06:43:52;5.20;76.00
530;DHT22;251;48.704;9.210;2022-11-20T06:46:19;5.30;76.30
530;DHT22;251;48.704;9.210;2022-11-20T06:48:47;5.30;76.30
530;DHT22;251;48.704;9.210;2022-11-20T06:51:14;5.20;76.00
530;DHT22;251;48.704;9.210;2022-11-20T06:53:41;5.40;74.70
530;DHT22;251;48.704;9.210;2022-11-20T06:56:08;5.30;75.20
530;DHT22;251;48.704;9.210;2022-11-20T06:58:36;5.30;75.30
530;DHT22;251;48.704;9.210;2022-11-20T07:01:05;5.30;75.10
530;DHT22;251;48.704;9.210;2022-11-20T07:03:32;5.30;75.40
530;DHT22;251;48.704;9.210;2022-11-20T07:06:00;5.20;74.70
530;DHT22;251;48.704;9.210;2022-11-20T07:08:28;5.30;75.00
530;DHT22;251;48.704;9.210;2022-11-20T07:10:57;5.30;75.20
530;DHT22;251;48.704;9.210;2022-11-20T07:13:24;5.30;74.00
530;DHT22;251;48.704;9.210;2022-11-20T07:15:51;5.30;74.80
530;DHT22;251;48.704;9.210;2022-11-20T07:18:19;5.40;75.20
530;DHT22;251;48.704;9.210;2022-11-20T07:20:46;5.50;75.60
530;DHT22;251;48.704;9.210;2022-11-20T07:23:12;5.20;74.60
530;DHT22;251;48.704;9.210;2022-11-20T07:25:39;5.30;74.60
530;DHT22;251;48.704;9.210;2022-11-20T07:28:07;5.50;74.80
530;DHT22;251;48.704;9.210;2022-11-20T07:30:36;5.30;74.70
530;DHT22;251;48.704;9.210;2022-11-20T07:33:03;5.70;75.40
530;DHT22;251;48.704;9.210;2022-11-20T07:35:31;5.50;75.70
530;DHT22;251;48.704;9.210;2022-11-20T07:37:59;5.60;75.60
530;DHT22;251;48.704;9.210;2022-11-20T07:40:25;5.50;75.40
530;DHT22;251;48.704;9.210;2022-11-20T07:42:54;5.60;75.60
530;DHT22;251;48.704;9.210;2022-11-20T07:45:22;5.70;75.50
530;DHT22;251;48.704;9.210;2022-11-20T07:47:49;5.60;75.00
530;DHT22;251;48.704;9.210;2022-11-20T07:50:16;5.70;75.00
530;DHT22;251;48.704;9.210;2022-11-20T07:52:45;5.50;74.70
530;DHT22;251;48.704;9.210;2022-11-20T07:55:12;5.60;75.00
530;DHT22;251;48.704;9.210;2022-11-20T07:57:39;5.60;75.00
530;DHT22;251;48.704;9.210;2022-11-20T08:00:08;5.60;75.10
530;DHT22;251;48.704;9.210;2022-11-20T08:02:38;5.60;75.50
530;DHT22;251;48.704;9.210;2022-11-20T08:05:06;5.60;75.30
530;DHT22;251;48.704;9.210;2022-11-20T08:07:36;5.50;75.00
530;DHT22;251;48.704;9.210;2022-11-20T08:10:05;5.60;74.80
530;DHT22;251;48.704;9.210;2022-11-20T08:12:32;5.60;74.80
530;DHT22;251;48.704;9.210;2022-11-20T08:15:17;5.60;76.50
530;DHT22;251;48.704;9.210;2022-11-20T08:17:43;6.10;75.60
530;DHT22;251;48.704;9.210;2022-11-20T08:20:10;5.70;76.40
530;DHT22;251;48.704;9.210;2022-11-20T08:22:37;5.60;75.80
530;DHT22;251;48.704;9.210;2022-11-20T08:25:06;5.90;75.90
530;DHT22;251;48.704;9.210;2022-11-20T08:27:33;5.90;75.20
530;DHT22;251;48.704;9.210;2022-11-20T08:29:59;6.20;75.50
530;DHT22;251;48.704;9.210;2022-11-20T08:32:26;6.20;75.80
530;DHT22;251;48.704;9.210;2022-11-20T08:34:53;5.90;74.50
530;DHT22;251;48.704;9.210;2022-11-20T08:37:20;5.90;75.00
530;DHT22;251;48.704;9.210;2022-11-20T08:39:46;5.90;75.70
530;DHT22;251;48.704;9.210;2022-11-20T08:42:15;6.10;76.00
530;DHT22;251;48.704;9.210;2022-11-20T08:44:41;6.00;75.30
530;DHT22;251;48.704;9.210;2022-11-20T08:47:09;6.10;75.20
530;DHT22;251;48.704;9.210;2022-11-20T08:49:35;6.30;75.60
530;DHT22;251;48.704;9.210;2022-11-20T08:52:02;6.00;74.50
530;DHT22;251;48.704;9.210;2022-11-20T08:54:29;6.20;74.40
530;DHT22;251;48.704;9.210;2022-11-20T08:56:56;6.00;75.70
530;DHT22;251;48.704;9.210;2022-11-20T08:59:24;6.50;76.30
530;DHT22;251;48.704;9.210;2022-11-20T09:01:51;6.20;75.60
530;DHT22;251;48.704;9.210;2022-11-20T09:04:18;6.40;75.30
530;DHT22;251;48.704;9.210;2022-11-20T09:06:44;6.20;75.60
530;DHT22;251;48.704;9.210;2022-11-20T09:09:11;6.40;75.10
530;DHT22;251;48.704;9.210;2022-11-20T09:11:38;6.50;76.70
530;DHT22;251;48.704;9.210;2022-11-20T09:14:05;6.50;75.70
530;DHT22;251;48.704;9.210;2022-11-20T09:16:33;6.20;74.50
530;DHT22;251;48.704;9.210;2022-11-20T09:19:00;6.30;75.30
530;DHT22;251;48.704;9.210;2022-11-20T09:21:27;6.50;73.90
530;DHT22;251;48.704;9.210;2022-11-20T09:23:53;6.20;73.80
530;DHT22;251;48.704;9.210;2022-11-20T09:26:20;6.50;74.80
530;DHT22;251;48.704;9.210;2022-11-20T09:28:47;6.40;74.70
530;DHT22;251;48.704;9.210;2022-11-20T09:31:19;6.50;74.50
530;DHT22;251;48.704;9.210;2022-11-20T09:33:49;6.80;74.40
530;DHT22;251;48.704;9.210;2022-11-20T09:36:16;6.30;74.30
530;DHT22;251;48.704;9.210;2022-11-20T09:38:44;6.70;73.30
530;DHT22;251;48.704;9.210;2022-11-20T09:41:31;6.70;73.80
530;DHT22;251;48.704;9.210;2022-11-20T09:44:07;6.80;73.30
530;DHT22;251;48.704;9.210;2022-11-20T09:46:43;6.80;72.30
530;DHT22;251;48.704;9.210;2022-11-20T09:49:23;6.80;71.90
530;DHT22;251;48.704;9.210;2022-11-20T09:51:57;6.70;71.80
530;DHT22;251;48.704;9.210;2022-11-20T09:54:27;6.70;72.00
530;DHT22;251;48.704;9.210;2022-11-20T09:56:59;6.70;72.20
530;DHT22;251;48.704;9.210;2022-11-20T09:59:34;6.70;71.90
530;DHT22;251;48.704;9.210;2022-11-20T10:02:06;6.70;72.60
530;DHT22;251;48.704;9.210;2022-11-20T10:04:44;6.70;71.90
530;DHT22;251;48.704;9.210;2022-11-20T10:07:16;6.80;72.60
530;DHT22;251;48.704;9.210;2022-11-20T10:09:51;6.80;71.70
530;DHT22;251;48.704;9.210;2022-11-20T10:12:24;6.80;71.70
530;DHT22;251;48.704;9.210;2022-11-20T10:15:03;6.80;72.00
530;DHT22;251;48.704;9.210;2022-11-20T10:17:52;6.80;72.30
530;DHT22;251;48.704;9.210;2022-11-20T10:20:28;7.00;71.70
530;DHT22;251;48.704;9.210;2022-11-20T10:23:11;7.00;72.60
530;DHT22;251;48.704;9.210;2022-11-20T10:25:47;7.00;72.30
530;DHT22;251;48.704;9.210;2022-11-20T10:28:24;7.00;71.70
530;DHT22;251;48.704;9.210;2022-11-20T10:30:59;7.00;71.90
530;DHT22;251;48.704;9.210;2022-11-20T10:33:27;7.10;72.50
530;DHT22;251;48.704;9.210;2022-11-20T10:36:05;7.00;73.40
530;DHT22;251;48.704;9.210;2022-11-20T10:38:38;6.60;74.00
530;DHT22;251;48.704;9.210;2022-11-20T10:41:06;7.00;75.10
530;DHT22;251;48.704;9.210;2022-11-20T10:43:54;7.10;75.90
530;DHT22;251;48.704;9.210;2022-11-20T10:46:25;6.60;76.80
530;DHT22;251;48.704;9.210;2022-11-20T10:48:56;6.80;77.10
530;DHT22;251;48.704;9.210;2022-11-20T10:51:31;6.90;78.60
530;DHT22;251;48.704;9.210;2022-11-20T10:54:12;6.70;79.60
530;DHT22;251;48.704;9.210;2022-11-20T10:56:47;6.80;80.40
530;DHT22;251;48.704;9.210;2022-11-20T10:59:43;6.80;81.40
530;DHT22;251;48.704;9.210;2022-11-20T11:02:20;6.70;82.50
530;DHT22;251;48.704;9.210;2022-11-20T11:04:49;6.80;81.60
530;DHT22;251;48.704;9.210;2022-11-20T11:07:21;6.70;81.90
530;DHT22;251;48.704;9.210;2022-11-20T11:09:50;6.50;82.20
530;DHT22;251;48.704;9.210;2022-11-20T11:12:19;6.80;82.60
530;DHT22;251;48.704;9.210;2022-11-20T11:14:48;6.50;83.10
530;DHT22;251;48.704;9.210;2022-11-20T11:17:22;6.60;84.30
530;DHT22;251;48.704;9.210;2022-11-20T11:20:04;6.90;83.80
530;DHT22;251;48.704;9.210;2022-11-20T11:22:34;6.80;83.80
530;DHT22;251;48.704;9.210;2022-11-20T11:25:19;6.80;83.90
530;DHT22;251;48.704;9.210;2022-11-20T11:27:47;6.70;84.00
530;DHT22;251;48.704;9.210;2022-11-20T11:30:16;6.80;83.60
530;DHT22;251;48.704;9.210;2022-11-20T11:32:43;6.80;83.90
530;DHT22;251;48.704;9.210;2022-11-20T11:35:22;6.70;83.70
530;DHT22;251;48.704;9.210;2022-11-20T11:37:51;7.00;81.90
530;DHT22;251;48.704;9.210;2022-11-20T11:40:21;7.10;80.20
530;DHT22;251;48.704;9.210;2022-11-20T11:42:52;7.00;79.30
530;DHT22;251;48.704;9.210;2022-11-20T11:45:20;7.00;77.70
530;DHT22;251;48.704;9.210;2022-11-20T11:47:47;7.10;75.90
530;DHT22;251;48.704;9.210;2022-11-20T11:50:17;7.10;74.80
530;DHT22;251;48.704;9.210;2022-11-20T11:52:50;7.20;74.80
530;DHT22;251;48.704;9.210;2022-11-20T11:55:26;7.30;74.00
530;DHT22;251;48.704;9.210;2022-11-20T11:58:04;7.50;73.80
530;DHT22;251;48.704;9.210;2022-11-20T12:00:33;7.30;72.30
530;DHT22;251;48.704;9.210;2022-11-20T12:03:08;7.80;72.60
530;DHT22;251;48.704;9.210;2022-11-20T12:05:40;7.80;69.70
530;DHT22;251;48.704;9.210;2022-11-20T12:08:16;7.70;68.80
530;DHT22;251;48.704;9.210;2022-11-20T12:10:48;7.80;68.80
530;DHT22;251;48.704;9.210;2022-11-20T12:13:36;7.80;68.80
530;DHT22;251;48.704;9.210;2022-11-20T12:16:04;7.80;67.00
530;DHT22;251;48.704;9.210;2022-11-20T12:18:31;7.80;65.80
530;DHT22;251;48.704;9.210;2022-11-20T12:21:08;7.80;63.00
530;DHT22;251;48.704;9.210;2022-11-20T12:23:47;8.00;65.10
530;DHT22;251;48.704;9.210;2022-11-20T12:26:22;7.80;62.50
530;DHT22;251;48.704;9.210;2022-11-20T12:29:01;7.80;62.90
530;DHT22;251;48.704;9.210;2022-11-20T12:31:47;7.90;61.60
530;DHT22;251;48.704;9.210;2022-11-20T12:34:32;7.80;63.20
530;DHT22;251;48.704;9.210;2022-11-20T12:37:08;7.70;60.70
530;DHT22;251;48.704;9.210;2022-11-20T12:39:42;7.80;61.10
530;DHT22;251;48.704;9.210;2022-11-20T12:45:34;7.70;60.90
530;DHT22;251;48.704;9.210;2022-11-20T12:48:29;7.80;61.20
530;DHT22;251;48.704;9.210;2022-11-20T12:51:12;7.70;58.80
530;DHT22;251;48.704;9.210;2022-11-20T12:53:53;7.40;58.40
530;DHT22;251;48.704;9.210;2022-11-20T12:56:31;7.90;59.10
530;DHT22;251;48.704;9.210;2022-11-20T12:59:10;7.70;59.60
530;DHT22;251;48.704;9.210;2022-11-20T13:01:49;7.80;59.50
530;DHT22;251;48.704;9.210;2022-11-20T13:04:29;7.70;58.50
530;DHT22;251;48.704;9.210;2022-11-20T13:06:58;7.80;58.40
530;DHT22;251;48.704;9.210;2022-11-20T13:09:26;7.60;56.50
530;DHT22;251;48.704;9.210;2022-11-20T13:12:02;7.80;54.70
530;DHT22;251;48.704;9.210;2022-11-20T13:14:35;7.70;56.80
530;DHT22;251;48.704;9.210;2022-11-20T13:17:07;7.80;56.70
530;DHT22;251;48.704;9.210;2022-11-20T13:19:36;7.70;55.30
530;DHT22;251;48.704;9.210;2022-11-20T13:22:03;7.80;54.70
530;DHT22;251;48.704;9.210;2022-11-20T13:24:31;7.80;55.30
530;DHT22;251;48.704;9.210;2022-11-20T13:27:19;7.70;53.70
530;DHT22;251;48.704;9.210;2022-11-20T13:29:58;8.00;55.00
530;DHT22;251;48.704;9.210;2022-11-20T13:32:26;7.80;53.40
530;DHT22;251;48.704;9.210;2022-11-20T13:34:59;7.90;53.80
530;DHT22;251;48.704;9.210;2022-11-20T13:37:30;7.80;51.90
530;DHT22;251;48.704;9.210;2022-11-20T13:40:20;8.00;53.10
530;DHT22;251;48.704;9.210;2022-11-20T13:42:56;8.10;52.60
530;DHT22;251;48.704;9.210;2022-11-20T13:45:28;7.80;50.60
530;DHT22;251;48.704;9.210;2022-11-20T13:48:01;8.10;52.00
530;DHT22;251;48.704;9.210;2022-11-20T13:50:44;7.80;51.80
530;DHT22;251;48.704;9.210;2022-11-20T13:53:23;7.80;52.70
530;DHT22;251;48.704;9.210;2022-11-20T13:56:00;7.70;52.20
530;DHT22;251;48.704;9.210;2022-11-20T13:58:40;8.00;54.10
530;DHT22;251;48.704;9.210;2022-11-20T14:01:17;8.00;53.90
530;DHT22;251;48.704;9.210;2022-11-20T14:03:46;7.80;51.40
530;DHT22;251;48.704;9.210;2022-11-20T14:06:23;7.70;50.70
530;DHT22;251;48.704;9.210;2022-11-20T14:08:51;7.80;51.40
530;DHT22;251;48.704;9.210;2022-11-20T14:11:19;7.80;50.70
530;DHT22;251;48.704;9.210;2022-11-20T14:13:58;7.70;51.50
530;DHT22;251;48.704;9.210;2022-11-20T14:16:27;7.90;52.20
530;DHT22;251;48.704;9.210;2022-11-20T14:18:55;7.70;50.10
530;DHT22;251;48.704;9.210;2022-11-20T14:21:26;7.80;52.80
530;DHT22;251;48.704;9.210;2022-11-20T14:24:02;7.80;51.20
530;DHT22;251;48.704;9.210;2022-11-20T14:26:29;7.50;50.60
530;DHT22;251;48.704;9.210;2022-11-20T14:28:57;7.30;50.50
530;DHT22;251;48.704;9.210;2022-11-20T14:31:26;7.50;51.80
530;DHT22;251;48.704;9.210;2022-11-20T14:33:54;7.60;52.90
530;DHT22;251;48.704;9.210;2022-11-20T14:36:23;7.50;53.30
530;DHT22;251;48.704;9.210;2022-11-20T14:38:52;7.30;52.70
530;DHT22;251;48.704;9.210;2022-11-20T14:41:21;7.40;54.80
530;DHT22;251;48.704;9.210;2022-11-20T14:43:53;7.50;54.80
530;DHT22;251;48.704;9.210;2022-11-20T14:46:22;7.50;55.50
530;DHT22;251;48.704;9.210;2022-11-20T14:48:51;7.40;55.50
530;DHT22;251;48.704;9.210;2022-11-20T14:51:30;7.40;56.20
530;DHT22;251;48.704;9.210;2022-11-20T14:54:08;7.40;56.80
530;DHT22;251;48.704;9.210;2022-11-20T14:56:35;7.30;57.40
530;DHT22;251;48.704;9.210;2022-11-20T14:59:02;7.40;57.30
530;DHT22;251;48.704;9.210;2022-11-20T15:01:32;7.40;57.50
530;DHT22;251;48.704;9.210;2022-11-20T15:04:00;7.40;57.60
530;DHT22;251;48.704;9.210;2022-11-20T15:06:28;7.40;58.20
530;DHT22;251;48.704;9.210;2022-11-20T15:08:57;7.40;57.80
530;DHT22;251;48.704;9.210;2022-11-20T15:11:28;7.20;57.50
530;DHT22;251;48.704;9.210;2022-11-20T15:13:57;7.50;58.10
530;DHT22;251;48.704;9.210;2022-11-20T15:16:24;7.10;57.30
530;DHT22;251;48.704;9.210;2022-11-20T15:18:54;7.40;58.00
530;DHT22;251;48.704;9.210;2022-11-20T15:21:21;7.20;58.50
530;DHT22;251;48.704;9.210;2022-11-20T15:23:49;7.20;58.30
530;DHT22;251;48.704;9.210;2022-11-20T15:26:18;7.40;58.20
530;DHT22;251;48.704;9.210;2022-11-20T15:28:47;7.10;58.50
530;DHT22;251;48.704;9.210;2022-11-20T15:31:17;7.10;58.80
530;DHT22;251;48.704;9.210;2022-11-20T15:33:45;7.00;58.60
530;DHT22;251;48.704;9.210;2022-11-20T15:36:14;7.10;59.60
530;DHT22;251;48.704;9.210;2022-11-20T15:38:40;7.10;59.80
530;DHT22;251;48.704;9.210;2022-11-20T15:41:07;7.10;60.10
530;DHT22;251;48.704;9.210;2022-11-20T15:43:35;6.90;60.60
530;DHT22;251;48.704;9.210;2022-11-20T15:46:04;7.10;61.40
530;DHT22;251;48.704;9.210;2022-11-20T15:48:35;7.10;61.40
530;DHT22;251;48.704;9.210;2022-11-20T15:51:06;7.10;61.60
530;DHT22;251;48.704;9.210;2022-11-20T15:53:40;6.80;61.60
530;DHT22;251;48.704;9.210;2022-11-20T15:56:11;6.70;61.10
530;DHT22;251;48.704;9.210;2022-11-20T15:58:38;7.10;61.30
530;DHT22;251;48.704;9.210;2022-11-20T16:01:05;7.10;61.60
530;DHT22;251;48.704;9.210;2022-11-20T16:03:36;6.80;62.10
530;DHT22;251;48.704;9.210;2022-11-20T16:06:02;7.10;62.70
530;DHT22;251;48.704;9.210;2022-11-20T16:08:29;6.80;62.80
530;DHT22;251;48.704;9.210;2022-11-20T16:10:58;6.80;63.40
530;DHT22;251;48.704;9.210;2022-11-20T16:13:24;6.80;63.90
530;DHT22;251;48.704;9.210;2022-11-20T16:16:19;6.80;64.10
530;DHT22;251;48.704;9.210;2022-11-20T16:18:46;6.80;65.10
530;DHT22;251;48.704;9.210;2022-11-20T16:21:13;6.70;65.70
530;DHT22;251;48.704;9.210;2022-11-20T16:23:40;6.80;65.60
530;DHT22;251;48.704;9.210;2022-11-20T16:26:14;6.90;65.30
530;DHT22;251;48.704;9.210;2022-11-20T16:28:45;6.70;65.80
530;DHT22;251;48.704;9.210;2022-11-20T16:31:12;6.60;66.10
530;DHT22;251;48.704;9.210;2022-11-20T16:33:40;6.70;67.00
530;DHT22;251;48.704;9.210;2022-11-20T16:36:09;6.80;67.30
530;DHT22;251;48.704;9.210;2022-11-20T16:38:39;6.80;67.10
530;DHT22;251;48.704;9.210;2022-11-20T16:41:06;6.80;65.70
530;DHT22;251;48.704;9.210;2022-11-20T16:43:44;6.80;67.00
530;DHT22;251;48.704;9.210;2022-11-20T16:46:12;6.70;66.70
530;DHT22;251;48.704;9.210;2022-11-20T16:48:39;6.70;66.20
530;DHT22;251;48.704;9.210;2022-11-20T16:51:08;6.90;66.60
530;DHT22;251;48.704;9.210;2022-11-20T16:53:35;6.70;65.90
530;DHT22;251;48.704;9.210;2022-11-20T16:56:12;6.70;66.90
530;DHT22;251;48.704;9.210;2022-11-20T16:58:42;6.70;66.80
530;DHT22;251;48.704;9.210;2022-11-20T17:01:11;6.70;67.60
530;DHT22;251;48.704;9.210;2022-11-20T17:03:39;6.70;68.30
530;DHT22;251;48.704;9.210;2022-11-20T17:06:11;6.70;68.10
530;DHT22;251;48.704;9.210;2022-11-20T17:08:38;6.80;66.50
530;DHT22;251;48.704;9.210;2022-11-20T17:11:06;6.70;66.80
530;DHT22;251;48.704;9.210;2022-11-20T17:13:33;6.80;66.40